createdAt,value
2019-01-27T00:01:51.045Z,6.85
2019-01-27T00:04:21.397Z,6.85
2019-01-27T00:06:52.614Z,6.89
2019-01-27T00:09:22.927Z,6.88
2019-01-27T00:11:53.598Z,6.91
2019-01-27T00:14:24.126Z,6.93
2019-01-27T00:16:54.534Z,6.95
2019-01-27T00:19:24.990Z,6.97
2019-01-27T00:21:55.991Z,6.99
2019-01-27T00:24:27.046Z,7.03
2019-01-27T00:26:57.511Z,7.09
2019-01-27T00:29:27.838Z,7.10
2019-01-27T00:31:58.254Z,7.12
2019-01-27T00:34:28.678Z,7.17
2019-01-27T00:37:02.094Z,7.17
2019-01-27T00:39:32.569Z,7.19
2019-01-27T00:42:03.198Z,7.13
2019-01-27T00:44:33.679Z,7.11
2019-01-27T00:47:04.101Z,7.05
2019-01-27T00:49:34.553Z,7.03
2019-01-27T00:52:05.010Z,7.01
2019-01-27T00:54:35.435Z,6.96
2019-01-27T00:57:06.334Z,6.92
2019-01-27T00:59:36.733Z,6.90
2019-01-27T01:02:08.591Z,6.90
2019-01-27T01:04:39.097Z,6.88
2019-01-27T01:07:10.304Z,6.84
2019-01-27T01:09:41.083Z,6.81
2019-01-27T01:12:11.484Z,6.80
2019-01-27T01:14:42.244Z,6.81
2019-01-27T01:17:17.049Z,6.80
2019-01-27T01:19:47.523Z,6.82
2019-01-27T01:22:21.595Z,6.83
2019-01-27T01:24:53.597Z,6.79
2019-01-27T01:27:27.076Z,6.78
2019-01-27T01:29:57.494Z,6.79
2019-01-27T01:32:27.906Z,6.75
2019-01-27T01:34:58.863Z,6.76
2019-01-27T01:37:29.967Z,6.74
2019-01-27T01:40:01.567Z,6.77
2019-01-27T01:42:33.347Z,6.74
2019-01-27T01:45:04.435Z,6.72
2019-01-27T01:47:34.810Z,6.70
2019-01-27T01:50:06.285Z,6.69
2019-01-27T01:52:36.775Z,6.67
2019-01-27T01:55:07.443Z,6.66
2019-01-27T01:57:38.719Z,6.65
2019-01-27T02:00:17.364Z,6.64
2019-01-27T02:02:47.961Z,6.65
2019-01-27T02:05:19.159Z,6.67
2019-01-27T02:07:50.068Z,6.68
2019-01-27T02:10:21.552Z,6.68
2019-01-27T02:12:54.987Z,6.66
2019-01-27T02:15:56.329Z,6.69
2019-01-27T02:18:26.870Z,6.70
2019-01-27T02:20:57.392Z,6.70
2019-01-27T02:23:28.821Z,6.71
2019-01-27T02:25:59.302Z,6.72
2019-01-27T02:28:38.117Z,6.72
2019-01-27T02:31:08.547Z,6.74
2019-01-27T02:33:39.070Z,6.76
2019-01-27T02:36:11.729Z,6.78
2019-01-27T02:38:42.052Z,6.81
2019-01-27T02:41:12.436Z,6.78
2019-01-27T02:43:43.973Z,6.82
2019-01-27T02:46:28.573Z,6.83
2019-01-27T02:49:01.402Z,6.86
2019-01-27T02:51:32.691Z,6.95
2019-01-27T02:54:03.073Z,6.92
2019-01-27T02:56:33.468Z,6.93
2019-01-27T02:59:07.272Z,6.90
2019-01-27T03:01:38.004Z,6.92
2019-01-27T03:04:08.690Z,6.93
2019-01-27T03:06:46.363Z,6.97
2019-01-27T03:09:20.781Z,6.97
2019-01-27T03:11:51.812Z,7.00
2019-01-27T03:14:22.479Z,7.02
2019-01-27T03:16:54.949Z,6.99
2019-01-27T03:19:25.331Z,6.98
2019-01-27T03:21:55.684Z,6.99
2019-01-27T03:24:26.089Z,7.00
2019-01-27T03:26:56.443Z,7.04
2019-01-27T03:29:26.782Z,7.04
2019-01-27T03:31:57.120Z,7.01
2019-01-27T03:34:27.489Z,7.01
2019-01-27T03:36:57.872Z,7.00
2019-01-27T03:39:28.239Z,7.04
2019-01-27T03:41:58.617Z,7.04
2019-01-27T03:44:29.023Z,7.08
2019-01-27T03:46:59.410Z,7.09
2019-01-27T03:49:29.796Z,7.16
2019-01-27T03:52:00.315Z,7.10
2019-01-27T03:54:33.581Z,7.09
2019-01-27T03:57:03.993Z,7.10
2019-01-27T03:59:34.372Z,7.10
2019-01-27T04:02:04.989Z,7.12
2019-01-27T04:04:35.343Z,7.12
2019-01-27T04:07:06.229Z,7.16
2019-01-27T04:09:36.584Z,7.20
2019-01-27T04:12:06.952Z,7.14
2019-01-27T04:14:37.398Z,7.16
2019-01-27T04:17:07.734Z,7.15
2019-01-27T04:19:38.127Z,7.14
2019-01-27T04:22:08.449Z,7.21
2019-01-27T04:24:38.750Z,7.17
2019-01-27T04:27:09.125Z,7.12
2019-01-27T04:29:39.913Z,7.15
2019-01-27T04:32:10.332Z,7.14
2019-01-27T04:34:41.068Z,7.13
2019-01-27T04:37:11.609Z,7.12
2019-01-27T04:39:45.079Z,7.11
2019-01-27T04:42:16.251Z,7.12
2019-01-27T04:44:48.870Z,7.09
2019-01-27T04:47:19.301Z,7.11
2019-01-27T04:49:49.679Z,7.08
2019-01-27T04:52:20.118Z,7.09
2019-01-27T04:54:50.537Z,7.03
2019-01-27T04:57:23.272Z,7.04
2019-01-27T05:00:13.028Z,6.97
2019-01-27T05:03:03.417Z,7.01
2019-01-27T05:05:34.128Z,6.96
2019-01-27T05:08:04.861Z,6.94
2019-01-27T05:10:38.525Z,6.97
2019-01-27T05:13:10.300Z,6.95
2019-01-27T05:15:41.408Z,6.93
2019-01-27T05:18:11.831Z,6.94
2019-01-27T05:20:44.573Z,6.92
2019-01-27T05:23:14.998Z,6.92
2019-01-27T05:25:47.468Z,6.91
2019-01-27T05:28:17.967Z,6.90
2019-01-27T05:30:48.305Z,6.88
2019-01-27T05:33:21.683Z,6.86
2019-01-27T05:35:53.532Z,6.87
2019-01-27T05:38:23.886Z,6.84
2019-01-27T05:40:54.344Z,6.86
2019-01-27T05:43:24.686Z,6.87
2019-01-27T05:45:55.092Z,6.88
2019-01-27T05:48:28.149Z,6.87
2019-01-27T05:50:58.545Z,6.89
2019-01-27T05:53:29.022Z,6.91
2019-01-27T05:55:59.377Z,6.94
2019-01-27T05:58:33.031Z,6.91
2019-01-27T06:01:03.464Z,6.89
2019-01-27T06:03:33.834Z,6.89
2019-01-27T06:06:04.268Z,6.90
2019-01-27T06:08:34.580Z,6.91
2019-01-27T06:11:04.964Z,6.89
2019-01-27T06:13:35.474Z,6.92
2019-01-27T06:16:05.877Z,6.91
2019-01-27T06:18:36.249Z,6.91
2019-01-27T06:21:06.687Z,6.93
2019-01-27T06:23:37.050Z,6.96
2019-01-27T06:26:09.468Z,6.95
2019-01-27T06:28:39.898Z,6.97
2019-01-27T06:31:10.302Z,7.01
2019-01-27T06:34:12.929Z,7.03
2019-01-27T06:36:43.324Z,7.04
2019-01-27T06:39:13.734Z,7.03
2019-01-27T06:41:44.114Z,7.08
2019-01-27T06:44:14.482Z,7.05
2019-01-27T06:46:44.876Z,7.08
2019-01-27T06:49:18.530Z,7.08
2019-01-27T06:51:51.727Z,7.04
2019-01-27T06:54:22.075Z,7.08
2019-01-27T06:56:52.406Z,7.07
2019-01-27T06:59:50.862Z,7.04
2019-01-27T07:02:29.666Z,7.04
2019-01-27T07:05:17.826Z,7.05
2019-01-27T07:08:05.761Z,7.03
2019-01-27T07:10:56.593Z,7.03
2019-01-27T07:14:02.009Z,7.06
2019-01-27T07:16:47.099Z,7.09
2019-01-27T07:19:48.540Z,7.10
2019-01-27T07:22:26.666Z,7.15
2019-01-27T07:25:31.009Z,7.15
2019-01-27T07:28:23.827Z,7.13
2019-01-27T07:31:14.589Z,7.13
2019-01-27T07:34:02.350Z,7.11
2019-01-27T07:36:51.630Z,7.09
2019-01-27T07:39:37.068Z,7.09
2019-01-27T07:42:14.739Z,7.10
2019-01-27T07:45:04.037Z,7.10
2019-01-27T07:47:41.387Z,7.12
2019-01-27T07:50:47.800Z,7.12
2019-01-27T07:53:24.979Z,7.12
2019-01-27T07:56:26.478Z,7.16
2019-01-27T07:59:02.662Z,7.19
2019-01-27T08:01:40.090Z,7.19
2019-01-27T08:04:35.423Z,7.20
2019-01-27T08:07:24.835Z,7.24
2019-01-27T08:10:20.167Z,7.29
2019-01-27T08:13:18.655Z,7.33
2019-01-27T08:16:15.826Z,7.36
2019-01-27T08:19:14.445Z,7.40
2019-01-27T08:22:10.067Z,7.46
2019-01-27T08:25:05.848Z,7.48
2019-01-27T08:27:58.080Z,7.51
2019-01-27T08:30:43.960Z,7.55
2019-01-27T08:33:36.340Z,7.58
2019-01-27T08:36:22.888Z,7.60
2019-01-27T08:39:15.366Z,7.62
2019-01-27T08:42:00.742Z,7.66
2019-01-27T08:45:05.278Z,7.68
2019-01-27T08:47:35.862Z,7.70
2019-01-27T08:50:09.795Z,7.73
2019-01-27T08:52:40.612Z,7.71
2019-01-27T08:55:12.882Z,7.71
2019-01-27T08:57:43.557Z,7.72
2019-01-27T09:00:21.169Z,7.73
2019-01-27T09:03:00.068Z,7.77
2019-01-27T09:06:01.718Z,7.79
2019-01-27T09:08:55.521Z,7.79
2019-01-27T09:11:36.258Z,7.85
2019-01-27T09:14:37.589Z,7.85
2019-01-27T09:17:41.923Z,7.87
2019-01-27T09:20:24.723Z,7.93
2019-01-27T09:23:08.509Z,8.00
2019-01-27T09:25:53.766Z,7.98
2019-01-27T09:28:31.685Z,7.97
2019-01-27T09:31:21.177Z,7.96
2019-01-27T09:34:25.717Z,7.98
2019-01-27T09:37:13.455Z,7.99
2019-01-27T09:40:05.532Z,8.06
2019-01-27T09:43:03.677Z,8.08
2019-01-27T09:46:05.179Z,8.13
2019-01-27T09:48:48.596Z,8.15
2019-01-27T09:51:31.941Z,8.17
2019-01-27T09:54:26.440Z,8.16
2019-01-27T09:57:14.804Z,8.22
2019-01-27T09:59:59.622Z,8.20
2019-01-27T10:02:35.622Z,8.19
2019-01-27T10:05:28.290Z,8.16
2019-01-27T10:08:21.892Z,8.14
2019-01-27T10:11:18.955Z,8.16
2019-01-27T10:14:06.743Z,8.14
2019-01-27T10:17:04.295Z,8.17
2019-01-27T10:20:05.763Z,8.11
2019-01-27T10:23:09.976Z,8.13
2019-01-27T10:26:11.274Z,8.11
2019-01-27T10:29:04.285Z,8.05
2019-01-27T10:31:47.836Z,8.10
2019-01-27T10:34:43.558Z,8.03
2019-01-27T10:37:40.214Z,8.07
2019-01-27T10:40:26.438Z,8.08
2019-01-27T10:43:30.045Z,8.02
2019-01-27T10:46:31.902Z,8.01
2019-01-27T10:49:11.738Z,8.00
2019-01-27T10:51:56.679Z,7.92
2019-01-27T10:54:52.354Z,7.85
2019-01-27T10:57:54.243Z,7.75
2019-01-27T11:00:43.474Z,7.76
2019-01-27T11:03:33.084Z,7.75
2019-01-27T11:06:22.402Z,7.80
2019-01-27T11:09:00.331Z,7.82
2019-01-27T11:11:46.130Z,7.83
2019-01-27T11:14:44.732Z,7.81
2019-01-27T11:17:46.705Z,7.83
2019-01-27T11:20:47.889Z,7.87
2019-01-27T11:23:37.599Z,7.95
2019-01-27T11:26:24.264Z,7.95
2019-01-27T11:29:35.093Z,7.95
2019-01-27T11:32:24.743Z,8.04
2019-01-27T11:35:11.581Z,8.02
2019-01-27T11:38:19.295Z,8.04
2019-01-27T11:41:12.364Z,8.11
2019-01-27T11:44:04.366Z,8.04
2019-01-27T11:47:05.550Z,8.01
2019-01-27T11:49:45.375Z,7.96
2019-01-27T11:52:33.561Z,7.98
2019-01-27T11:55:04.617Z,7.77
2019-01-27T11:57:36.072Z,7.69
2019-01-27T12:00:12.884Z,7.56
2019-01-27T12:02:46.694Z,7.37
2019-01-27T12:05:18.293Z,7.30
2019-01-27T12:07:48.937Z,7.28
2019-01-27T12:10:19.364Z,7.18
2019-01-27T12:12:50.635Z,7.16
2019-01-27T12:15:21.455Z,7.11
2019-01-27T12:17:51.884Z,7.18
2019-01-27T12:20:22.244Z,7.17
2019-01-27T12:22:55.224Z,7.21
2019-01-27T12:25:28.230Z,7.20
2019-01-27T12:27:59.251Z,7.18
2019-01-27T12:30:31.838Z,7.25
2019-01-27T12:33:02.367Z,7.28
2019-01-27T12:35:33.069Z,7.29
2019-01-27T12:38:03.675Z,7.29
2019-01-27T12:40:34.486Z,7.34
2019-01-27T12:43:07.507Z,7.39
2019-01-27T12:45:38.288Z,7.45
2019-01-27T12:48:10.347Z,7.54
2019-01-27T12:50:40.788Z,7.52
2019-01-27T12:53:11.193Z,7.54
2019-01-27T12:55:47.104Z,7.53
2019-01-27T12:58:18.347Z,7.47
2019-01-27T13:00:52.858Z,7.50
2019-01-27T13:03:24.747Z,7.58
2019-01-27T13:05:57.635Z,7.66
2019-01-27T13:08:28.080Z,7.74
2019-01-27T13:11:05.656Z,7.77
2019-01-27T13:13:34.640Z,7.80
2019-01-27T13:16:06.190Z,7.84
2019-01-27T13:18:36.860Z,7.95
2019-01-27T13:21:11.089Z,7.96
2019-01-27T13:23:41.579Z,7.90
2019-01-27T13:26:12.061Z,7.95
2019-01-27T13:28:42.429Z,7.97
2019-01-27T13:31:13.828Z,7.99
2019-01-27T13:33:44.156Z,8.00
2019-01-27T13:36:14.585Z,8.07
2019-01-27T13:38:50.977Z,8.07
2019-01-27T13:41:17.202Z,8.11
2019-01-27T13:43:48.731Z,8.16
2019-01-27T13:46:19.470Z,8.20
2019-01-27T13:48:49.940Z,8.19
2019-01-27T13:51:20.308Z,8.06
2019-01-27T13:53:51.076Z,7.97
2019-01-27T13:56:26.688Z,8.01
2019-01-27T13:58:57.083Z,7.82
2019-01-27T14:01:30.446Z,7.74
2019-01-27T14:04:02.646Z,7.66
2019-01-27T14:06:33.022Z,7.58
2019-01-27T14:09:23.001Z,7.58
2019-01-27T14:11:53.532Z,7.48
2019-01-27T14:14:27.006Z,7.45
2019-01-27T14:16:57.391Z,7.37
2019-01-27T14:19:30.707Z,7.33
2019-01-27T14:22:01.181Z,7.32
2019-01-27T14:24:31.561Z,7.33
2019-01-27T14:27:03.833Z,7.31
2019-01-27T14:29:34.208Z,7.27
2019-01-27T14:32:04.737Z,7.23
2019-01-27T14:34:35.192Z,7.25
2019-01-27T14:37:06.555Z,7.26
2019-01-27T14:39:39.802Z,7.29
2019-01-27T14:42:11.479Z,7.26
2019-01-27T14:44:45.314Z,7.21
2019-01-27T14:47:19.031Z,7.20
2019-01-27T14:49:51.811Z,7.21
2019-01-27T14:52:22.721Z,7.18
2019-01-27T14:54:53.228Z,7.19
2019-01-27T14:57:26.653Z,7.11
2019-01-27T14:59:59.236Z,7.08
2019-01-27T15:02:29.764Z,7.07
2019-01-27T15:05:01.672Z,7.16
2019-01-27T15:07:32.059Z,7.11
2019-01-27T15:10:02.408Z,7.14
2019-01-27T15:12:32.869Z,7.14
2019-01-27T15:15:03.348Z,7.08
2019-01-27T15:17:33.834Z,6.98
2019-01-27T15:20:05.183Z,6.83
2019-01-27T15:22:35.588Z,6.69
2019-01-27T15:25:07.832Z,6.62
2019-01-27T15:27:38.471Z,6.46
2019-01-27T15:30:19.216Z,6.37
2019-01-27T15:32:51.795Z,6.30
2019-01-27T15:35:23.332Z,6.14
2019-01-27T15:38:39.336Z,6.04
2019-01-27T15:41:04.643Z,5.98
2019-01-27T15:43:36.241Z,5.92
2019-01-27T15:46:08.549Z,5.86
2019-01-27T15:48:40.192Z,5.84
2019-01-27T15:51:12.014Z,5.88
2019-01-27T15:53:42.693Z,5.83
2019-01-27T15:56:14.245Z,5.78
2019-01-27T15:58:44.591Z,5.86
2019-01-27T16:01:15.915Z,5.81
2019-01-27T16:03:46.715Z,5.89
2019-01-27T16:06:18.351Z,5.86
2019-01-27T16:08:50.221Z,5.80
2019-01-27T16:11:21.427Z,5.80
2019-01-27T16:13:54.715Z,5.84
2019-01-27T16:16:26.300Z,5.78
2019-01-27T16:18:58.998Z,5.79
2019-01-27T16:21:30.581Z,5.78
2019-01-27T16:24:06.356Z,5.78
2019-01-27T16:26:40.534Z,5.75
2019-01-27T16:29:14.540Z,5.69
2019-01-27T16:31:52.568Z,5.67
2019-01-27T16:34:48.507Z,5.57
2019-01-27T16:37:19.548Z,5.56
2019-01-27T16:39:55.574Z,5.59
2019-01-27T16:42:26.799Z,5.57
2019-01-27T16:44:57.810Z,5.58
2019-01-27T16:47:33.789Z,5.62
2019-01-27T16:50:10.710Z,5.61
2019-01-27T16:52:41.182Z,5.58
2019-01-27T16:55:14.215Z,5.60
2019-01-27T16:57:45.023Z,5.57
2019-01-27T17:00:21.067Z,5.55
2019-01-27T17:02:54.931Z,5.47
2019-01-27T17:05:29.314Z,5.46
2019-01-27T17:07:59.820Z,5.54
2019-01-27T17:10:30.516Z,5.59
2019-01-27T17:13:03.818Z,5.54
2019-01-27T17:15:35.702Z,5.52
2019-01-27T17:18:06.660Z,5.58
2019-01-27T17:20:37.333Z,5.63
2019-01-27T17:23:11.244Z,5.61
2019-01-27T17:25:43.276Z,5.57
2019-01-27T17:28:16.728Z,5.58
2019-01-27T17:30:48.126Z,5.55
2019-01-27T17:33:18.529Z,5.53
2019-01-27T17:35:52.058Z,5.55
2019-01-27T17:38:26.411Z,5.51
2019-01-27T17:40:56.885Z,5.55
2019-01-27T17:43:27.363Z,5.57
2019-01-27T17:45:59.832Z,5.55
2019-01-27T17:48:34.985Z,5.53
2019-01-27T17:51:05.711Z,5.51
2019-01-27T17:53:46.715Z,5.52
2019-01-27T17:56:17.652Z,5.54
2019-01-27T17:59:11.308Z,5.51
2019-01-27T18:02:17.270Z,5.52
2019-01-27T18:05:05.622Z,5.46
2019-01-27T18:08:03.631Z,5.47
2019-01-27T18:10:56.105Z,5.47
2019-01-27T18:13:46.848Z,5.43
2019-01-27T18:16:17.264Z,5.43
2019-01-27T18:18:49.387Z,5.39
2019-01-27T18:21:20.032Z,5.41
2019-01-27T18:23:52.669Z,5.36
2019-01-27T18:26:24.028Z,5.37
2019-01-27T18:28:54.539Z,5.34
2019-01-27T18:31:25.079Z,5.31
2019-01-27T18:33:55.723Z,5.33
2019-01-27T18:36:26.540Z,5.45
2019-01-27T18:38:56.906Z,5.39
2019-01-27T18:41:29.137Z,5.36
2019-01-27T18:43:59.540Z,5.47
2019-01-27T18:46:30.067Z,5.33
2019-01-27T18:49:00.563Z,5.29
2019-01-27T18:51:31.219Z,5.32
2019-01-27T18:54:29.539Z,5.35
2019-01-27T18:57:05.645Z,5.31
2019-01-27T18:59:45.537Z,5.33
2019-01-27T19:02:33.663Z,5.33
2019-01-27T19:05:33.056Z,5.28
2019-01-27T19:08:21.242Z,5.21
2019-01-27T19:11:10.661Z,5.20
2019-01-27T19:13:57.847Z,5.30
2019-01-27T19:16:47.981Z,5.29
2019-01-27T19:19:27.194Z,5.33
2019-01-27T19:22:17.962Z,5.36
2019-01-27T19:25:19.833Z,5.33
2019-01-27T19:28:07.961Z,5.29
2019-01-27T19:30:46.077Z,5.28
2019-01-27T19:33:47.612Z,5.16
2019-01-27T19:36:35.367Z,5.09
2019-01-27T19:39:28.015Z,5.11
2019-01-27T19:42:16.095Z,5.04
2019-01-27T19:45:05.518Z,5.03
2019-01-27T19:47:53.756Z,5.02
2019-01-27T19:50:50.424Z,4.98
2019-01-27T19:53:27.965Z,4.92
2019-01-27T19:56:17.381Z,4.91
2019-01-27T19:59:09.823Z,4.88
2019-01-27T20:01:58.235Z,4.74
2019-01-27T20:04:41.244Z,4.72
2019-01-27T20:07:27.119Z,4.70
2019-01-27T20:10:29.697Z,4.68
2019-01-27T20:13:14.621Z,4.61
2019-01-27T20:16:05.120Z,4.57
2019-01-27T20:18:57.096Z,4.50
2019-01-27T20:21:53.566Z,4.47
2019-01-27T20:24:50.186Z,4.46
2019-01-27T20:27:43.101Z,4.50
2019-01-27T20:30:35.508Z,4.50
2019-01-27T20:33:25.845Z,4.54
2019-01-27T20:36:20.287Z,4.54
2019-01-27T20:39:11.518Z,4.48
2019-01-27T20:41:56.358Z,4.44
2019-01-27T20:44:48.450Z,4.50
2019-01-27T20:47:33.976Z,4.50
2019-01-27T20:50:14.556Z,4.50
2019-01-27T20:53:03.976Z,4.49
2019-01-27T20:55:59.885Z,4.47
2019-01-27T20:58:55.102Z,4.53
2019-01-27T21:01:49.067Z,4.55
2019-01-27T21:04:44.180Z,4.46
2019-01-27T21:07:29.965Z,4.50
2019-01-27T21:10:12.463Z,4.47
2019-01-27T21:12:52.778Z,4.50
2019-01-27T21:15:44.048Z,4.47
2019-01-27T21:18:31.518Z,4.43
2019-01-27T21:21:09.840Z,4.39
2019-01-27T21:23:41.475Z,4.39
2019-01-27T21:26:16.426Z,4.41
2019-01-27T21:28:46.981Z,4.39
2019-01-27T21:31:23.251Z,4.44
2019-01-27T21:33:55.975Z,4.49
2019-01-27T21:36:28.649Z,4.45
2019-01-27T21:39:02.117Z,4.46
2019-01-27T21:41:34.101Z,4.44
2019-01-27T21:44:05.523Z,4.44
2019-01-27T21:46:39.602Z,4.43
2019-01-27T21:49:10.034Z,4.45
2019-01-27T21:51:40.601Z,4.41
2019-01-27T21:54:11.025Z,4.29
2019-01-27T21:56:41.574Z,4.23
2019-01-27T21:59:12.102Z,4.21
2019-01-27T22:01:42.501Z,4.26
2019-01-27T22:04:12.878Z,4.34
2019-01-27T22:06:43.314Z,4.37
2019-01-27T22:09:13.776Z,4.36
2019-01-27T22:11:44.286Z,4.35
2019-01-27T22:14:17.584Z,4.29
2019-01-27T22:16:48.052Z,4.32
2019-01-27T22:19:18.763Z,4.32
2019-01-27T22:21:49.150Z,4.33
2019-01-27T22:24:19.526Z,4.30
2019-01-27T22:26:50.603Z,4.37
2019-01-27T22:29:20.974Z,4.40
2019-01-27T22:31:51.364Z,4.44
2019-01-27T22:34:22.068Z,4.51
2019-01-27T22:36:52.391Z,4.44
2019-01-27T22:39:22.854Z,4.46
2019-01-27T22:41:53.244Z,4.50
2019-01-27T22:44:25.640Z,4.56
2019-01-27T22:46:59.446Z,4.52
2019-01-27T22:49:29.895Z,4.59
2019-01-27T22:52:08.441Z,4.52
2019-01-27T22:54:38.770Z,4.54
2019-01-27T22:57:09.305Z,4.54
2019-01-27T22:59:40.112Z,4.50
2019-01-27T23:02:11.002Z,4.53
2019-01-27T23:04:41.514Z,4.50
2019-01-27T23:07:18.013Z,4.50
2019-01-27T23:09:48.547Z,4.45
2019-01-27T23:12:18.888Z,4.47
2019-01-27T23:14:52.405Z,4.54
2019-01-27T23:17:25.078Z,4.51
2019-01-27T23:19:55.443Z,4.51
2019-01-27T23:22:28.085Z,4.53
2019-01-27T23:24:58.547Z,4.53
2019-01-27T23:27:28.939Z,4.55
2019-01-27T23:29:59.479Z,4.57
2019-01-27T23:32:29.869Z,4.54
2019-01-27T23:35:02.673Z,4.57
2019-01-27T23:37:32.996Z,4.58
2019-01-27T23:40:04.998Z,4.66
2019-01-27T23:42:35.778Z,4.62
2019-01-27T23:45:11.619Z,4.61
2019-01-27T23:47:42.428Z,4.61
2019-01-27T23:50:13.020Z,4.60
2019-01-27T23:52:43.388Z,4.59
2019-01-27T23:55:13.709Z,4.55
2019-01-27T23:57:44.086Z,4.53
